Terminal Aerodrome Forecast
Issued by NWS

Current Version | Previous Version | Graphics & Text | Print | Product List | Glossary On
Versions: 1 2 3 4 5 6 7 8 9 10 11 12 13 14 15 16 17 18 19
130
FTUS41 KILN 242331
TAFLUK
TAF
KLUK 242331Z 2500/2524 21012G18KT 6SM -SHRA VCTS SCT028 OVC045CB
      TEMPO 2501/2504 4SM TSRA BR OVC028CB
     FM250600 28014G24KT P6SM BKN050
     FM251300 26015G25KT P6SM OVC028
     FM251800 27015G25KT P6SM OVC040=

USA.gov is the U.S. government's official web portal to all federal, state and local government web resources and services.